Main page
Satellite images 15-day forecastsClimateMarine weather Cyclones Lightning AirportsFAQ Newsletter About
Weather : Europe Africa North America South America Asia Australia-Oceania Others
Languages Contact

Cologne, Germany

Flughafen Köln/Bonn

latitude: 50-52N, longitude: 007-10E, elevation: 91 m


METAR: EDDK 011120Z 13007KT CAVOK 19/11 Q1020 NOSIG
TAF: EDDK 011100Z 0112/0218 13006KT CAVOK BECMG 0210/0213 15011KT

Time: 12:38 (11:38 UTC)

Current weather observation

The report was made 18 minutes ago, at 11:20 UTC
Wind 7 kt from the Southeast
Temperature 19°C
Humidity 60%
Pressure 1020 hPa
Visibility 10 km or more
no clouds below 1500 m and no cumulonimbus

Change units

Forecast

The report was made 38 minutes ago, at 11:00 UTC
Forecast valid from 01 at 12 UTC to 02 at 18 UTC
Wind 6 kt from the Southeast
Visibility 10 km or more
no clouds below 1500 m and no cumulonimbus
Becoming
from 02 at 10 UTC to 02 at 13 UTC
Wind 11 kt from the South/Southeast
The information on this site is subject to a disclaimer
Weather : Europe Africa North America South America Asia Australia-Oceania Others
Satellite images 15-day forecastsClimateMarine weather Cyclones Lightning AirportsFAQ Languages Contact Newsletter About